createdAt,value
2023-05-10T00:00:37.366Z,782.29
2023-05-10T00:01:37.422Z,782.05
2023-05-10T00:02:37.485Z,782.32
2023-05-10T00:03:37.439Z,781.29
2023-05-10T00:04:37.311Z,781.95
2023-05-10T00:05:37.301Z,782.98
2023-05-10T00:06:37.337Z,783.31
2023-05-10T00:07:37.259Z,783.01
2023-05-10T00:08:37.259Z,783.10
2023-05-10T00:09:37.259Z,783.63
2023-05-10T00:10:37.228Z,783.86
2023-05-10T00:11:37.265Z,783.89
2023-05-10T00:12:37.216Z,784.23
2023-05-10T00:13:37.184Z,783.80
2023-05-10T00:14:37.209Z,783.22
2023-05-10T00:15:37.266Z,782.43
2023-05-10T00:16:37.227Z,783.06
2023-05-10T00:17:37.201Z,783.56
2023-05-10T00:18:37.224Z,784.07
2023-05-10T00:19:37.136Z,783.80
2023-05-10T00:20:38.237Z,783.74
2023-05-10T00:21:37.160Z,783.99
2023-05-10T00:22:37.088Z,784.40
2023-05-10T00:23:37.145Z,785.20
2023-05-10T00:24:37.067Z,784.72
2023-05-10T00:25:37.102Z,784.00
2023-05-10T00:26:38.107Z,782.88
2023-05-10T00:27:37.068Z,782.20
2023-05-10T00:28:37.024Z,781.68
2023-05-10T00:29:37.020Z,781.36
2023-05-10T00:30:37.015Z,781.47
2023-05-10T00:31:37.028Z,781.78
2023-05-10T00:32:37.151Z,781.01
2023-05-10T00:33:36.952Z,780.58
2023-05-10T00:34:36.980Z,781.73
2023-05-10T00:35:36.947Z,781.90
2023-05-10T00:36:36.923Z,782.29
2023-05-10T00:37:37.004Z,782.88
2023-05-10T00:38:36.930Z,782.62
2023-05-10T00:39:36.926Z,782.05
2023-05-10T00:40:36.900Z,782.03
2023-05-10T00:41:36.880Z,782.21
2023-05-10T00:42:36.859Z,781.58
2023-05-10T00:43:36.952Z,780.87
2023-05-10T00:44:36.872Z,780.62
2023-05-10T00:45:36.844Z,781.71
2023-05-10T00:46:37.020Z,782.61
2023-05-10T00:47:37.849Z,782.78
2023-05-10T00:48:36.784Z,782.37
2023-05-10T00:49:36.845Z,781.35
2023-05-10T00:50:36.782Z,781.49
2023-05-10T00:51:36.765Z,781.76
2023-05-10T00:52:36.808Z,781.61
2023-05-10T00:53:36.780Z,781.61
2023-05-10T00:54:36.708Z,782.17
2023-05-10T00:55:36.728Z,782.35
2023-05-10T00:56:36.733Z,782.05
2023-05-10T00:57:36.690Z,782.14
2023-05-10T00:58:36.706Z,782.18
2023-05-10T00:59:36.676Z,782.28
2023-05-10T01:00:36.661Z,781.91
2023-05-10T01:01:36.720Z,781.78
2023-05-10T01:02:36.713Z,781.55
2023-05-10T01:03:36.756Z,781.19
2023-05-10T01:04:36.693Z,781.36
2023-05-10T01:05:36.599Z,781.96
2023-05-10T01:06:36.576Z,782.22
2023-05-10T01:07:36.576Z,781.91
2023-05-10T01:08:36.561Z,781.91
2023-05-10T01:09:36.575Z,782.25
2023-05-10T01:10:36.553Z,782.16
2023-05-10T01:11:36.533Z,781.66
2023-05-10T01:12:36.606Z,780.92
2023-05-10T01:13:36.521Z,779.85
2023-05-10T01:14:36.507Z,779.09
2023-05-10T01:15:36.493Z,778.75
2023-05-10T01:16:36.478Z,778.80
2023-05-10T01:17:36.534Z,778.70
2023-05-10T01:18:36.454Z,779.71
2023-05-10T01:19:38.234Z,780.39
2023-05-10T01:20:36.445Z,779.86
2023-05-10T01:21:36.401Z,779.80
2023-05-10T01:22:36.403Z,780.53
2023-05-10T01:23:36.383Z,780.33
2023-05-10T01:24:36.409Z,780.10
2023-05-10T01:25:36.372Z,780.69
2023-05-10T01:26:38.067Z,781.31
2023-05-10T01:27:36.338Z,782.21
2023-05-10T01:28:36.365Z,782.26
2023-05-10T01:29:36.326Z,781.50
2023-05-10T01:30:36.337Z,782.22
2023-05-10T01:31:36.361Z,783.59
2023-05-10T01:32:36.331Z,783.65
2023-05-10T01:33:36.304Z,783.47
2023-05-10T01:34:36.278Z,783.08
2023-05-10T01:35:36.250Z,782.75
2023-05-10T01:36:36.335Z,782.99
2023-05-10T01:37:36.242Z,782.90
2023-05-10T01:38:36.206Z,783.15
2023-05-10T01:39:36.207Z,784.71
2023-05-10T01:40:36.212Z,785.03
2023-05-10T01:41:36.224Z,785.25
2023-05-10T01:42:36.171Z,784.92
2023-05-10T01:43:36.179Z,785.56
2023-05-10T01:44:36.141Z,786.34
2023-05-10T01:45:36.200Z,786.23
2023-05-10T01:46:36.160Z,786.21
2023-05-10T01:47:36.160Z,786.85
2023-05-10T01:48:36.115Z,787.02
2023-05-10T01:49:36.127Z,785.63
2023-05-10T01:50:36.128Z,785.17
2023-05-10T01:51:36.066Z,785.03
2023-05-10T01:52:36.040Z,786.08
2023-05-10T01:53:36.073Z,786.21
2023-05-10T01:54:36.088Z,785.94
2023-05-10T01:55:36.044Z,786.65
2023-05-10T01:56:36.004Z,786.00
2023-05-10T01:57:36.000Z,785.03
2023-05-10T01:58:35.981Z,784.27
2023-05-10T01:59:36.003Z,783.58
2023-05-10T02:00:35.986Z,782.84
2023-05-10T02:01:35.960Z,783.16
2023-05-10T02:02:35.981Z,783.40
2023-05-10T02:03:36.059Z,783.73
2023-05-10T02:04:36.191Z,784.74
2023-05-10T02:05:35.931Z,785.64
2023-05-10T02:06:35.886Z,786.68
2023-05-10T02:07:35.905Z,786.83
2023-05-10T02:08:35.882Z,787.20
2023-05-10T02:09:35.869Z,786.86
2023-05-10T02:10:35.837Z,786.88
2023-05-10T02:11:35.853Z,787.63
2023-05-10T02:12:35.843Z,787.27
2023-05-10T02:13:35.828Z,787.16
2023-05-10T02:14:35.803Z,787.12
2023-05-10T02:15:36.141Z,786.35
2023-05-10T02:16:37.520Z,786.10
2023-05-10T02:17:35.829Z,785.65
2023-05-10T02:18:35.761Z,785.90
2023-05-10T02:19:35.742Z,786.02
2023-05-10T02:20:35.752Z,785.90
2023-05-10T02:21:35.746Z,786.66
2023-05-10T02:22:35.724Z,788.65
2023-05-10T02:23:35.698Z,789.73
2023-05-10T02:24:35.739Z,789.59
2023-05-10T02:25:35.743Z,789.48
2023-05-10T02:26:35.721Z,790.57
2023-05-10T02:27:35.707Z,790.64
2023-05-10T02:28:35.645Z,790.61
2023-05-10T02:29:35.634Z,791.07
2023-05-10T02:30:35.656Z,791.40
2023-05-10T02:31:35.927Z,791.12
2023-05-10T02:32:35.692Z,790.64
2023-05-10T02:33:35.620Z,789.52
2023-05-10T02:34:35.584Z,788.83
2023-05-10T02:35:35.602Z,790.10
2023-05-10T02:36:35.610Z,791.13
2023-05-10T02:37:35.554Z,791.12
2023-05-10T02:38:35.547Z,790.85
2023-05-10T02:39:35.523Z,790.80
2023-05-10T02:40:35.522Z,791.63
2023-05-10T02:41:37.260Z,791.66
2023-05-10T02:42:35.504Z,791.69
2023-05-10T02:43:35.493Z,792.17
2023-05-10T02:44:35.453Z,792.13
2023-05-10T02:45:35.460Z,791.46
2023-05-10T02:46:35.546Z,791.26
2023-05-10T02:47:35.485Z,792.35
2023-05-10T02:48:35.473Z,793.32
2023-05-10T02:49:35.426Z,793.78
2023-05-10T02:50:35.423Z,793.48
2023-05-10T02:51:35.429Z,793.79
2023-05-10T02:52:35.396Z,793.59
2023-05-10T02:53:35.371Z,793.01
2023-05-10T02:56:34.489Z,793.91
2023-05-10T02:57:34.468Z,792.22
2023-05-10T02:58:34.428Z,791.85
2023-05-10T02:59:34.421Z,792.02
2023-05-10T03:00:34.427Z,792.36
2023-05-10T03:01:34.452Z,792.69
2023-05-10T03:02:34.405Z,792.96
2023-05-10T03:03:34.390Z,792.33
2023-05-10T03:04:34.506Z,791.51
2023-05-10T03:05:34.390Z,791.65
2023-05-10T03:06:34.358Z,791.68
2023-05-10T03:07:34.320Z,792.61
2023-05-10T03:08:34.332Z,792.64
2023-05-10T03:09:34.337Z,792.69
2023-05-10T03:10:34.295Z,792.71
2023-05-10T03:11:34.303Z,793.00
2023-05-10T03:12:34.252Z,793.27
2023-05-10T03:13:34.325Z,793.07
2023-05-10T03:14:34.253Z,792.79
2023-05-10T03:15:34.231Z,792.62
2023-05-10T03:16:34.287Z,792.79
2023-05-10T03:17:34.249Z,792.50
2023-05-10T03:18:34.224Z,792.14
2023-05-10T03:19:34.197Z,791.32
2023-05-10T03:20:34.196Z,790.65
2023-05-10T03:21:34.199Z,790.30
2023-05-10T03:22:34.159Z,789.63
2023-05-10T03:23:34.188Z,789.69
2023-05-10T03:24:34.143Z,790.42
2023-05-10T03:25:34.152Z,790.55
2023-05-10T03:26:34.109Z,790.46
2023-05-10T03:27:34.164Z,790.10
2023-05-10T03:28:34.168Z,789.83
2023-05-10T03:29:34.113Z,789.97
2023-05-10T03:30:34.064Z,790.17
2023-05-10T03:31:34.099Z,790.19
2023-05-10T03:32:34.170Z,790.39
2023-05-10T03:33:34.033Z,790.30
2023-05-10T03:34:34.025Z,790.09
2023-05-10T03:35:34.048Z,789.76
2023-05-10T03:36:34.014Z,789.27
2023-05-10T03:37:33.992Z,789.37
2023-05-10T03:38:33.996Z,789.57
2023-05-10T03:39:33.973Z,788.67
2023-05-10T03:40:34.008Z,788.14
2023-05-10T03:41:33.952Z,787.96
2023-05-10T03:42:33.947Z,787.41
2023-05-10T03:43:33.950Z,787.56
2023-05-10T03:44:33.917Z,787.80
2023-05-10T03:45:33.870Z,788.17
2023-05-10T03:46:34.625Z,788.47
2023-05-10T03:47:33.990Z,788.85
2023-05-10T03:48:35.646Z,788.49
2023-05-10T03:49:33.854Z,787.79
2023-05-10T03:50:33.852Z,788.10
2023-05-10T03:51:33.820Z,787.81
2023-05-10T03:52:33.825Z,787.89
2023-05-10T03:53:35.542Z,787.46
2023-05-10T03:54:34.791Z,787.48
2023-05-10T03:55:33.793Z,787.78
2023-05-10T03:56:35.557Z,788.09
2023-05-10T03:57:33.775Z,787.71
2023-05-10T03:58:33.772Z,787.66
2023-05-10T03:59:33.742Z,787.97
2023-05-10T04:00:33.745Z,788.02
2023-05-10T04:01:33.752Z,787.82
2023-05-10T04:02:33.796Z,787.73
2023-05-10T04:03:33.789Z,787.93
2023-05-10T04:04:33.696Z,788.00
2023-05-10T04:05:33.680Z,787.93
2023-05-10T04:06:33.693Z,788.09
2023-05-10T04:07:33.683Z,788.23
2023-05-10T04:08:33.722Z,788.61
2023-05-10T04:10:47.686Z,789.36
2023-05-10T04:11:47.658Z,788.85
2023-05-10T04:12:47.765Z,788.64
2023-05-10T04:13:47.653Z,789.11
2023-05-10T04:14:48.564Z,789.52
2023-05-10T04:15:47.651Z,789.23
2023-05-10T04:16:49.662Z,789.57
2023-05-10T04:17:47.661Z,789.23
2023-05-10T04:18:47.609Z,788.61
2023-05-10T04:19:47.605Z,788.14
2023-05-10T04:20:47.586Z,787.92
2023-05-10T04:21:47.564Z,787.07
2023-05-10T04:22:47.598Z,786.08
2023-05-10T04:23:47.577Z,786.16
2023-05-10T04:24:47.529Z,786.48
2023-05-10T04:25:47.517Z,787.39
2023-05-10T04:26:47.542Z,787.32
2023-05-10T04:27:47.539Z,788.11
2023-05-10T04:28:49.323Z,788.59
2023-05-10T04:29:47.490Z,788.44
2023-05-10T04:30:47.507Z,788.31
2023-05-10T04:31:47.463Z,788.02
2023-05-10T04:32:47.514Z,787.98
2023-05-10T04:33:47.470Z,787.64
2023-05-10T04:34:47.429Z,788.32
2023-05-10T04:35:47.415Z,788.22
2023-05-10T04:36:47.485Z,788.28
2023-05-10T04:37:47.418Z,788.11
2023-05-10T04:38:47.404Z,787.80
2023-05-10T04:39:47.367Z,788.28
2023-05-10T04:40:47.363Z,789.64
2023-05-10T04:41:47.371Z,789.80
2023-05-10T04:42:47.354Z,788.76
2023-05-10T04:43:47.340Z,788.37
2023-05-10T04:44:47.298Z,786.91
2023-05-10T04:45:47.315Z,785.62
2023-05-10T04:46:47.378Z,785.79
2023-05-10T04:47:47.359Z,786.65
2023-05-10T04:48:47.324Z,788.84
2023-05-10T04:49:49.065Z,791.11
2023-05-10T04:50:47.280Z,790.26
2023-05-10T04:51:47.225Z,789.74
2023-05-10T04:52:47.266Z,790.44
2023-05-10T04:54:01.427Z,791.88
2023-05-10T04:54:48.240Z,794.50
2023-05-10T04:55:47.188Z,794.21
2023-05-10T04:56:47.184Z,792.84
2023-05-10T04:57:47.177Z,793.06
2023-05-10T04:58:47.171Z,793.53
2023-05-10T04:59:49.026Z,792.44
2023-05-10T05:00:48.129Z,791.00
2023-05-10T05:01:47.162Z,788.57
2023-05-10T05:02:47.128Z,787.08
2023-05-10T05:03:47.279Z,787.27
2023-05-10T05:04:47.090Z,787.83
2023-05-10T05:05:47.085Z,786.68
2023-05-10T05:06:47.071Z,785.48
2023-05-10T05:07:47.081Z,785.66
2023-05-10T05:08:47.035Z,786.40
2023-05-10T05:09:47.029Z,786.66
2023-05-10T05:10:47.020Z,786.98
2023-05-10T05:11:47.024Z,786.21
2023-05-10T05:12:46.982Z,786.39
2023-05-10T05:13:46.973Z,786.44
2023-05-10T05:14:46.960Z,785.86
2023-05-10T05:15:46.990Z,784.94
2023-05-10T05:16:46.947Z,784.72
2023-05-10T05:17:46.990Z,784.70
2023-05-10T05:18:46.905Z,784.85
2023-05-10T05:19:46.970Z,784.79
2023-05-10T05:20:46.914Z,784.71
2023-05-10T05:21:46.894Z,784.91
2023-05-10T05:22:46.858Z,785.66
2023-05-10T05:23:48.814Z,786.09
2023-05-10T05:24:46.868Z,785.44
2023-05-10T05:25:46.839Z,786.07
2023-05-10T05:26:46.826Z,787.70
2023-05-10T05:27:46.798Z,789.02
2023-05-10T05:28:46.798Z,790.59
2023-05-10T05:29:46.801Z,792.44
2023-05-10T05:30:46.774Z,793.91
2023-05-10T05:31:46.852Z,794.46
2023-05-10T05:32:46.806Z,793.73
2023-05-10T05:33:46.763Z,793.65
2023-05-10T05:34:47.463Z,793.69
2023-05-10T05:35:46.701Z,794.19
2023-05-10T05:36:46.716Z,793.26
2023-05-10T05:37:46.738Z,794.01
2023-05-10T05:38:46.707Z,792.34
2023-05-10T05:39:46.672Z,790.37
2023-05-10T05:40:46.679Z,789.62
2023-05-10T05:41:46.654Z,789.39
2023-05-10T05:42:46.618Z,790.13
2023-05-10T05:43:46.617Z,791.44
2023-05-10T05:44:46.665Z,791.35
2023-05-10T05:45:46.662Z,791.09
2023-05-10T05:46:46.621Z,790.65
2023-05-10T05:47:46.644Z,789.70
2023-05-10T05:48:46.564Z,788.99
2023-05-10T05:49:46.555Z,788.94
2023-05-10T05:50:46.574Z,789.27
2023-05-10T05:51:46.521Z,790.43
2023-05-10T05:52:46.515Z,791.28
2023-05-10T05:53:46.502Z,792.29
2023-05-10T05:54:46.578Z,792.90
2023-05-10T05:55:46.483Z,793.13
2023-05-10T05:56:46.485Z,793.55
2023-05-10T05:57:46.495Z,794.95
2023-05-10T05:58:46.457Z,795.14
2023-05-10T05:59:46.458Z,794.76
2023-05-10T06:00:46.441Z,794.77
2023-05-10T06:01:46.456Z,796.11
2023-05-10T06:02:46.604Z,798.45
2023-05-10T06:03:46.447Z,800.37
2023-05-10T06:04:46.421Z,802.19
2023-05-10T06:05:46.374Z,807.00
2023-05-10T06:06:46.371Z,812.96
2023-05-10T06:07:46.368Z,827.26
2023-05-10T06:08:46.348Z,881.37
2023-05-10T06:09:46.312Z,925.65
2023-05-10T06:10:46.303Z,927.59
2023-05-10T06:11:46.346Z,916.26
2023-05-10T06:12:46.305Z,896.65
2023-05-10T06:13:46.300Z,873.85
2023-05-10T06:14:46.258Z,864.94
2023-05-10T06:15:46.269Z,866.80
2023-05-10T06:16:46.339Z,870.78
2023-05-10T06:17:46.286Z,876.01
2023-05-10T06:18:46.247Z,867.27
2023-05-10T06:19:46.212Z,884.69
2023-05-10T06:20:46.190Z,888.39
2023-05-10T06:21:46.233Z,855.01
2023-05-10T06:22:46.198Z,857.69
2023-05-10T06:23:46.165Z,836.62
2023-05-10T06:24:46.164Z,829.09
2023-05-10T06:25:46.300Z,825.75
2023-05-10T06:26:46.140Z,824.14
2023-05-10T06:27:49.720Z,818.10
2023-05-10T06:28:47.110Z,804.69
2023-05-10T06:29:46.131Z,789.79
2023-05-10T06:30:46.083Z,780.39
2023-05-10T06:31:46.176Z,774.38
2023-05-10T06:32:46.189Z,772.38
2023-05-10T06:33:46.102Z,771.32
2023-05-10T06:34:46.061Z,771.08
2023-05-10T06:35:46.073Z,771.66
2023-05-10T06:36:46.043Z,770.74
2023-05-10T06:37:46.056Z,769.55
2023-05-10T06:38:46.006Z,767.21
2023-05-10T06:39:46.014Z,765.38
2023-05-10T06:40:46.007Z,764.17
2023-05-10T06:41:45.981Z,761.96
2023-05-10T06:42:46.014Z,761.89
2023-05-10T06:43:45.977Z,764.56
2023-05-10T06:44:45.963Z,765.82
2023-05-10T06:45:45.940Z,765.50
2023-05-10T06:46:46.720Z,764.59
2023-05-10T06:47:45.959Z,764.72
2023-05-10T06:48:45.899Z,766.70
2023-05-10T06:49:45.877Z,767.87
2023-05-10T06:50:47.613Z,770.43
2023-05-10T06:51:45.882Z,772.62
2023-05-10T06:52:46.870Z,774.17
2023-05-10T06:53:45.863Z,774.36
2023-05-10T06:54:45.849Z,774.22
2023-05-10T06:55:45.819Z,775.14
2023-05-10T06:56:45.847Z,774.92
2023-05-10T06:57:47.566Z,773.70
2023-05-10T06:58:45.851Z,774.96
2023-05-10T06:59:45.785Z,775.43
2023-05-10T07:00:45.905Z,774.41
2023-05-10T07:01:45.789Z,773.15
2023-05-10T07:02:45.855Z,773.17
2023-05-10T07:03:45.727Z,773.44
2023-05-10T07:04:45.757Z,773.17
2023-05-10T07:05:45.683Z,772.53
2023-05-10T07:06:45.718Z,772.50
2023-05-10T07:07:45.683Z,771.38
2023-05-10T07:08:45.670Z,769.98
2023-05-10T07:09:45.725Z,770.37
2023-05-10T07:10:45.652Z,771.77
2023-05-10T07:11:45.654Z,772.11
2023-05-10T07:12:45.769Z,771.69
2023-05-10T07:13:45.626Z,771.68
2023-05-10T07:14:45.595Z,772.54
2023-05-10T07:15:45.631Z,772.33
2023-05-10T07:16:45.841Z,772.11
2023-05-10T07:17:45.947Z,772.67
2023-05-10T07:18:45.565Z,773.53
2023-05-10T07:19:45.562Z,774.55
2023-05-10T07:20:45.548Z,777.44
2023-05-10T07:21:45.554Z,778.55
2023-05-10T07:22:45.504Z,779.49
2023-05-10T07:23:45.524Z,780.18
2023-05-10T07:24:45.516Z,780.80
2023-05-10T07:25:45.487Z,781.15
2023-05-10T07:26:45.486Z,782.94
2023-05-10T07:27:45.454Z,784.61
2023-05-10T07:28:45.479Z,785.39
2023-05-10T07:29:45.431Z,786.43
2023-05-10T07:30:45.537Z,787.45
2023-05-10T07:31:45.430Z,789.48
2023-05-10T07:32:45.507Z,790.29
2023-05-10T07:33:45.392Z,789.78
2023-05-10T07:34:45.380Z,789.36
2023-05-10T07:35:45.386Z,789.85
2023-05-10T07:36:45.348Z,791.01
2023-05-10T07:37:45.436Z,793.33
2023-05-10T07:38:45.323Z,795.34
2023-05-10T07:39:45.318Z,795.19
2023-05-10T07:40:45.309Z,792.72
2023-05-10T07:41:45.309Z,789.29
2023-05-10T07:42:45.296Z,786.89
2023-05-10T07:43:45.277Z,786.47
2023-05-10T07:44:45.262Z,786.90
2023-05-10T07:45:45.306Z,786.09
2023-05-10T07:46:45.243Z,785.10
2023-05-10T07:47:45.293Z,782.84
2023-05-10T07:48:45.246Z,780.94
2023-05-10T07:49:45.233Z,779.15
2023-05-10T07:50:45.189Z,778.90
2023-05-10T07:51:45.170Z,779.77
2023-05-10T07:52:45.177Z,781.91
2023-05-10T07:53:45.169Z,786.03
2023-05-10T07:54:45.147Z,791.43
2023-05-10T07:55:45.151Z,794.93
2023-05-10T07:56:45.174Z,794.84
2023-05-10T07:57:45.107Z,790.59
2023-05-10T07:58:45.090Z,784.25
2023-05-10T07:59:45.077Z,779.37
2023-05-10T08:00:45.113Z,776.93
2023-05-10T08:01:45.071Z,775.45
2023-05-10T08:02:45.184Z,774.03
2023-05-10T08:03:45.119Z,775.59
2023-05-10T08:04:45.188Z,779.31
2023-05-10T08:05:45.019Z,781.93
2023-05-10T08:06:45.059Z,784.78
2023-05-10T08:07:45.058Z,788.29
2023-05-10T08:08:45.021Z,791.92
2023-05-10T08:09:44.984Z,798.48
2023-05-10T08:10:44.981Z,807.25
2023-05-10T08:11:44.997Z,817.37
2023-05-10T08:12:45.112Z,832.74
2023-05-10T08:13:44.916Z,847.30
2023-05-10T08:14:44.923Z,871.27
2023-05-10T08:15:45.003Z,888.46
2023-05-10T08:16:44.879Z,896.40
2023-05-10T08:17:44.962Z,898.07
2023-05-10T08:18:44.994Z,902.00
2023-05-10T08:19:44.887Z,908.51
2023-05-10T08:20:44.851Z,917.50
2023-05-10T08:21:44.910Z,930.02
2023-05-10T08:22:44.863Z,929.07
2023-05-10T08:23:45.162Z,918.37
2023-05-10T08:24:44.816Z,899.03
2023-05-10T08:25:44.818Z,870.78
2023-05-10T08:26:44.780Z,833.77
2023-05-10T08:27:44.760Z,818.22
2023-05-10T08:28:44.794Z,815.98
2023-05-10T08:29:49.968Z,819.87
2023-05-10T08:30:45.708Z,828.21
2023-05-10T08:31:44.860Z,840.59
2023-05-10T08:32:44.873Z,855.02
2023-05-10T08:33:44.920Z,858.69
2023-05-10T08:34:44.682Z,852.61
2023-05-10T08:35:44.697Z,834.94
2023-05-10T08:36:44.667Z,820.36
2023-05-10T08:37:44.679Z,811.96
2023-05-10T08:38:44.656Z,809.90
2023-05-10T08:39:44.643Z,808.52
2023-05-10T08:40:44.646Z,810.31
2023-05-10T08:41:44.631Z,810.16
2023-05-10T08:42:47.396Z,805.95
2023-05-10T08:43:44.637Z,808.15
2023-05-10T08:44:44.590Z,806.86
2023-05-10T08:45:44.586Z,805.04
2023-05-10T08:46:44.678Z,801.92
2023-05-10T08:47:44.590Z,800.20
2023-05-10T08:48:44.611Z,800.17
2023-05-10T08:49:44.608Z,802.64
2023-05-10T08:50:44.528Z,810.23
2023-05-10T08:51:45.310Z,831.11
2023-05-10T08:52:44.515Z,870.98
2023-05-10T08:53:44.537Z,895.87
2023-05-10T08:54:44.476Z,910.11
2023-05-10T08:55:44.474Z,917.05
2023-05-10T08:56:44.487Z,914.66
2023-05-10T08:57:44.446Z,904.28
2023-05-10T08:58:44.432Z,859.78
2023-05-10T08:59:44.502Z,788.17
2023-05-10T09:00:44.460Z,759.19
2023-05-10T09:01:44.457Z,745.11
2023-05-10T09:02:44.501Z,740.08
2023-05-10T09:03:44.411Z,739.63
2023-05-10T09:04:44.473Z,740.40
2023-05-10T09:05:44.366Z,742.40
2023-05-10T09:06:44.368Z,747.16
2023-05-10T09:07:44.356Z,754.94
2023-05-10T09:08:44.330Z,760.39
2023-05-10T09:09:44.375Z,764.18
2023-05-10T09:10:44.332Z,766.74
2023-05-10T09:11:44.283Z,767.19
2023-05-10T09:12:44.294Z,768.59
2023-05-10T09:13:44.301Z,771.05
2023-05-10T09:14:44.272Z,773.46
2023-05-10T09:15:44.274Z,780.66
2023-05-10T09:16:46.040Z,787.58
2023-05-10T09:17:44.247Z,791.80
2023-05-10T09:18:44.245Z,798.41
2023-05-10T09:19:44.210Z,800.46
2023-05-10T09:20:44.212Z,801.76
2023-05-10T09:21:44.170Z,802.93
2023-05-10T09:22:44.163Z,805.62
2023-05-10T09:23:45.165Z,811.18
2023-05-10T09:24:44.156Z,816.47
2023-05-10T09:25:44.417Z,821.01
2023-05-10T09:26:44.906Z,830.11
2023-05-10T09:27:44.103Z,838.97
2023-05-10T09:28:44.129Z,853.53
2023-05-10T09:29:44.102Z,873.81
2023-05-10T09:30:44.092Z,893.90
2023-05-10T09:31:44.047Z,909.91
2023-05-10T09:32:44.199Z,928.58
2023-05-10T09:33:44.068Z,935.23
2023-05-10T09:34:44.057Z,940.44
2023-05-10T09:35:44.014Z,947.08
2023-05-10T09:36:45.813Z,957.40
2023-05-10T09:37:44.031Z,964.55
2023-05-10T09:38:44.023Z,970.12
2023-05-10T09:39:43.964Z,974.96
2023-05-10T09:40:43.976Z,980.29
2023-05-10T09:41:43.949Z,984.83
2023-05-10T09:42:43.948Z,986.65
2023-05-10T09:43:43.949Z,990.04
2023-05-10T09:44:43.908Z,992.42
2023-05-10T09:45:43.895Z,994.43
2023-05-10T09:46:43.925Z,995.92
2023-05-10T09:47:43.987Z,996.07
2023-05-10T09:48:43.887Z,994.51
2023-05-10T09:49:43.894Z,991.77
2023-05-10T09:50:43.857Z,987.89
2023-05-10T09:51:43.857Z,985.51
2023-05-10T09:52:43.824Z,987.24
2023-05-10T09:53:43.839Z,991.18
2023-05-10T09:54:43.785Z,992.03
2023-05-10T09:55:43.893Z,995.00
2023-05-10T09:56:43.828Z,998.87
2023-05-10T09:57:43.811Z,1005.57
2023-05-10T09:58:43.746Z,1008.91
2023-05-10T09:59:43.786Z,997.77
2023-05-10T10:00:43.782Z,993.21
2023-05-10T10:01:43.803Z,1000.16
2023-05-10T10:02:43.788Z,1001.05
2023-05-10T10:03:43.712Z,988.91
2023-05-10T10:04:43.695Z,983.46
2023-05-10T10:05:43.693Z,980.71
2023-05-10T10:06:43.694Z,966.58
2023-05-10T10:07:44.014Z,939.41
2023-05-10T10:08:43.641Z,927.64
2023-05-10T10:09:43.622Z,924.99
2023-05-10T10:10:43.668Z,905.72
2023-05-10T10:11:43.637Z,891.35
2023-05-10T10:12:43.678Z,869.38
2023-05-10T10:13:43.576Z,826.66
2023-05-10T10:14:43.606Z,800.51
2023-05-10T10:15:43.604Z,791.11
2023-05-10T10:16:51.805Z,785.22
2023-05-10T10:17:44.620Z,789.18
2023-05-10T10:18:43.575Z,791.69
2023-05-10T10:19:43.558Z,783.20
2023-05-10T10:20:43.542Z,770.58
2023-05-10T10:21:43.520Z,763.69
2023-05-10T10:22:43.527Z,770.70
2023-05-10T10:23:43.519Z,806.78
2023-05-10T10:24:43.487Z,848.62
2023-05-10T10:25:43.458Z,886.08
2023-05-10T10:26:43.473Z,924.00
2023-05-10T10:27:43.462Z,944.03
2023-05-10T10:28:43.434Z,954.81
2023-05-10T10:29:43.473Z,968.41
2023-05-10T10:30:43.422Z,970.27
2023-05-10T10:31:43.418Z,972.21
2023-05-10T10:32:43.430Z,964.49
2023-05-10T10:33:43.411Z,921.78
2023-05-10T10:34:43.369Z,791.41
2023-05-10T10:35:43.383Z,751.78
2023-05-10T10:36:43.337Z,743.07
2023-05-10T10:37:43.355Z,744.03
2023-05-10T10:38:43.359Z,756.81
2023-05-10T10:39:43.302Z,780.91
2023-05-10T10:40:44.063Z,817.69
2023-05-10T10:41:43.289Z,895.29
2023-05-10T10:42:43.306Z,935.59
2023-05-10T10:43:44.049Z,948.49
2023-05-10T10:44:43.254Z,953.86
2023-05-10T10:45:43.260Z,967.59
2023-05-10T10:46:43.378Z,984.03
2023-05-10T10:47:43.275Z,1014.78
2023-05-10T10:48:43.222Z,1020.23
2023-05-10T10:49:43.207Z,1039.59
2023-05-10T10:50:43.165Z,1016.02
2023-05-10T10:51:43.177Z,1019.68
2023-05-10T10:52:43.185Z,1024.37
2023-05-10T10:53:43.141Z,1004.49
2023-05-10T10:54:43.129Z,999.85
2023-05-10T10:55:43.111Z,997.30
2023-05-10T10:56:43.152Z,984.87
2023-05-10T10:57:43.131Z,967.80
2023-05-10T10:58:43.101Z,935.06
2023-05-10T10:59:43.094Z,925.59
2023-05-10T11:00:43.096Z,922.64
2023-05-10T11:01:43.074Z,786.63
2023-05-10T11:02:43.111Z,780.50
2023-05-10T11:03:43.072Z,825.26
2023-05-10T11:04:43.044Z,913.23
2023-05-10T11:05:43.097Z,960.20
2023-05-10T11:06:43.041Z,987.25
2023-05-10T11:07:42.998Z,1007.81
2023-05-10T11:08:42.986Z,1018.29
2023-05-10T11:09:42.983Z,1017.08
2023-05-10T11:10:43.026Z,1015.64
2023-05-10T11:11:42.978Z,1014.62
2023-05-10T11:12:42.959Z,1013.82
2023-05-10T11:13:42.954Z,1013.19
2023-05-10T11:14:42.918Z,1013.94
2023-05-10T11:15:42.920Z,1010.86
2023-05-10T11:16:42.941Z,1006.59
2023-05-10T11:17:43.188Z,1003.36
2023-05-10T11:18:42.906Z,1006.82
2023-05-10T11:19:42.878Z,999.51
2023-05-10T11:20:42.859Z,989.90
2023-05-10T11:21:42.865Z,983.64
2023-05-10T11:22:42.842Z,981.60
2023-05-10T11:23:42.840Z,977.88
2023-05-10T11:24:42.812Z,975.96
2023-05-10T11:25:42.810Z,972.38
2023-05-10T11:26:42.766Z,975.06
2023-05-10T11:27:42.768Z,979.86
2023-05-10T11:28:43.750Z,986.78
2023-05-10T11:29:42.826Z,991.14
2023-05-10T11:30:44.719Z,994.67
2023-05-10T11:31:42.727Z,997.32
2023-05-10T11:32:42.743Z,1000.02
2023-05-10T11:33:42.726Z,1002.51
2023-05-10T11:34:42.705Z,1005.04
2023-05-10T11:35:44.530Z,1008.38
2023-05-10T11:36:42.675Z,1012.82
2023-05-10T11:37:42.656Z,1016.58
2023-05-10T11:38:42.684Z,1016.50
2023-05-10T11:39:42.640Z,1015.18
2023-05-10T11:40:42.613Z,1009.36
2023-05-10T11:41:43.122Z,1000.22
2023-05-10T11:42:42.605Z,989.60
2023-05-10T11:43:42.646Z,983.37
2023-05-10T11:44:42.570Z,982.81
2023-05-10T11:45:42.565Z,984.45
2023-05-10T11:46:42.723Z,986.79
2023-05-10T11:47:42.949Z,989.86
2023-05-10T11:48:42.547Z,997.36
2023-05-10T11:49:42.566Z,1000.11
2023-05-10T11:50:42.497Z,1001.49
2023-05-10T11:51:42.513Z,997.37
2023-05-10T11:52:42.495Z,990.86
2023-05-10T11:53:42.503Z,985.96
2023-05-10T11:54:42.443Z,978.76
2023-05-10T11:55:42.460Z,970.34
2023-05-10T11:56:42.481Z,967.65
2023-05-10T11:57:42.464Z,965.16
2023-05-10T11:58:42.462Z,956.43
2023-05-10T11:59:43.277Z,946.30
2023-05-10T12:00:42.413Z,934.47
2023-05-10T12:01:42.400Z,906.05
2023-05-10T12:02:42.474Z,866.96
2023-05-10T12:03:42.593Z,820.53
2023-05-10T12:04:42.404Z,783.87
2023-05-10T12:05:43.100Z,765.13
2023-05-10T12:06:42.374Z,753.66
2023-05-10T12:07:42.303Z,741.46
2023-05-10T12:08:42.441Z,731.54
2023-05-10T12:09:44.010Z,725.43
2023-05-10T12:10:42.302Z,723.43
2023-05-10T12:11:44.255Z,725.49
2023-05-10T12:12:42.272Z,733.20
2023-05-10T12:13:42.289Z,740.60
2023-05-10T12:14:42.311Z,752.36
2023-05-10T12:15:42.227Z,765.11
2023-05-10T12:16:42.326Z,774.79
2023-05-10T12:17:43.529Z,775.65
2023-05-10T12:18:42.280Z,776.36
2023-05-10T12:19:42.224Z,770.10
2023-05-10T12:20:42.198Z,763.55
2023-05-10T12:21:42.165Z,759.80
2023-05-10T12:22:42.145Z,762.92
2023-05-10T12:23:42.158Z,767.08
2023-05-10T12:24:42.142Z,766.80
2023-05-10T12:25:42.150Z,763.31
2023-05-10T12:26:42.130Z,758.49
2023-05-10T12:27:42.077Z,757.52
2023-05-10T12:28:42.096Z,758.38
2023-05-10T12:29:46.979Z,760.79
2023-05-10T12:30:42.114Z,759.72